sensor_id;sensor_type;location;lat;lon;timestamp;temperature;humidity
22426;DHT22;11380;50.822;15.790;2022-12-07T00:04:59;1.80;99.90
22426;DHT22;11380;50.822;15.790;2022-12-07T00:10:02;1.70;99.90
22426;DHT22;11380;50.822;15.790;2022-12-07T00:15:05;1.70;99.90
22426;DHT22;11380;50.822;15.790;2022-12-07T00:20:09;1.70;99.90
22426;DHT22;11380;50.822;15.790;2022-12-07T00:25:11;1.50;99.90
22426;DHT22;11380;50.822;15.790;2022-12-07T00:30:14;1.60;99.90
22426;DHT22;11380;50.822;15.790;2022-12-07T00:35:16;1.80;99.90
22426;DHT22;11380;50.822;15.790;2022-12-07T00:40:19;1.80;99.90
22426;DHT22;11380;50.822;15.790;2022-12-07T00:45:21;1.90;99.90
22426;DHT22;11380;50.822;15.790;2022-12-07T00:50:23;1.70;99.90
22426;DHT22;11380;50.822;15.790;2022-12-07T00:55:26;1.80;99.90
22426;DHT22;11380;50.822;15.790;2022-12-07T01:00:28;1.70;99.90
22426;DHT22;11380;50.822;15.790;2022-12-07T01:05:30;1.60;99.90
22426;DHT22;11380;50.822;15.790;2022-12-07T01:10:32;1.60;99.90
22426;DHT22;11380;50.822;15.790;2022-12-07T01:15:40;1.60;99.90
22426;DHT22;11380;50.822;15.790;2022-12-07T01:20:44;1.50;99.90
22426;DHT22;11380;50.822;15.790;2022-12-07T01:25:53;1.50;99.90
22426;DHT22;11380;50.822;15.790;2022-12-07T01:31:08;1.40;99.90
22426;DHT22;11380;50.822;15.790;2022-12-07T01:36:16;1.60;99.90
22426;DHT22;11380;50.822;15.790;2022-12-07T01:41:21;1.60;99.90
22426;DHT22;11380;50.822;15.790;2022-12-07T01:46:23;1.80;99.90
22426;DHT22;11380;50.822;15.790;2022-12-07T01:51:26;1.70;99.90
22426;DHT22;11380;50.822;15.790;2022-12-07T01:56:29;1.70;99.90
22426;DHT22;11380;50.822;15.790;2022-12-07T02:01:32;1.70;99.90
22426;DHT22;11380;50.822;15.790;2022-12-07T02:06:35;1.70;99.90
22426;DHT22;11380;50.822;15.790;2022-12-07T02:11:38;1.70;99.90
22426;DHT22;11380;50.822;15.790;2022-12-07T02:43:57;1.60;99.90
22426;DHT22;11380;50.822;15.790;2022-12-07T02:49:02;1.60;99.90
22426;DHT22;11380;50.822;15.790;2022-12-07T02:54:13;1.80;99.90
22426;DHT22;11380;50.822;15.790;2022-12-07T02:59:43;1.70;99.90
22426;DHT22;11380;50.822;15.790;2022-12-07T03:16:09;1.60;99.90
22426;DHT22;11380;50.822;15.790;2022-12-07T03:21:20;1.60;99.90
22426;DHT22;11380;50.822;15.790;2022-12-07T03:26:39;1.60;99.90
22426;DHT22;11380;50.822;15.790;2022-12-07T03:31:50;1.60;99.90
22426;DHT22;11380;50.822;15.790;2022-12-07T03:37:05;1.60;99.90
22426;DHT22;11380;50.822;15.790;2022-12-07T03:42:10;1.50;99.90
22426;DHT22;11380;50.822;15.790;2022-12-07T03:52:41;1.60;99.90
22426;DHT22;11380;50.822;15.790;2022-12-07T03:57:47;1.50;99.90
22426;DHT22;11380;50.822;15.790;2022-12-07T04:02:52;1.50;99.90
22426;DHT22;11380;50.822;15.790;2022-12-07T04:07:55;1.60;99.90
22426;DHT22;11380;50.822;15.790;2022-12-07T04:12:58;1.60;99.90
22426;DHT22;11380;50.822;15.790;2022-12-07T04:18:00;1.70;99.90
22426;DHT22;11380;50.822;15.790;2022-12-07T04:23:02;1.60;99.90
22426;DHT22;11380;50.822;15.790;2022-12-07T04:28:04;1.40;99.90
22426;DHT22;11380;50.822;15.790;2022-12-07T04:33:07;1.50;99.90
22426;DHT22;11380;50.822;15.790;2022-12-07T04:38:10;1.40;99.90
22426;DHT22;11380;50.822;15.790;2022-12-07T04:43:12;1.50;99.90
22426;DHT22;11380;50.822;15.790;2022-12-07T04:48:14;1.60;99.90
22426;DHT22;11380;50.822;15.790;2022-12-07T04:53:16;1.60;99.90
22426;DHT22;11380;50.822;15.790;2022-12-07T04:58:18;1.60;99.90
22426;DHT22;11380;50.822;15.790;2022-12-07T05:03:21;1.50;99.90
22426;DHT22;11380;50.822;15.790;2022-12-07T05:08:23;1.60;99.90
22426;DHT22;11380;50.822;15.790;2022-12-07T05:13:26;1.50;99.90
22426;DHT22;11380;50.822;15.790;2022-12-07T05:18:28;1.50;99.90
22426;DHT22;11380;50.822;15.790;2022-12-07T05:23:30;1.50;99.90
22426;DHT22;11380;50.822;15.790;2022-12-07T05:28:32;1.50;99.90
22426;DHT22;11380;50.822;15.790;2022-12-07T05:33:35;1.50;99.90
22426;DHT22;11380;50.822;15.790;2022-12-07T05:38:37;1.40;99.90
22426;DHT22;11380;50.822;15.790;2022-12-07T05:43:39;1.50;99.90
22426;DHT22;11380;50.822;15.790;2022-12-07T05:48:41;1.50;99.90
22426;DHT22;11380;50.822;15.790;2022-12-07T05:53:42;1.40;99.90
22426;DHT22;11380;50.822;15.790;2022-12-07T05:58:45;1.40;99.90
22426;DHT22;11380;50.822;15.790;2022-12-07T06:04:05;1.40;99.90
22426;DHT22;11380;50.822;15.790;2022-12-07T06:09:07;1.40;99.90
22426;DHT22;11380;50.822;15.790;2022-12-07T06:14:09;1.20;99.90
22426;DHT22;11380;50.822;15.790;2022-12-07T06:19:12;1.30;99.90
22426;DHT22;11380;50.822;15.790;2022-12-07T06:24:16;1.40;99.90
22426;DHT22;11380;50.822;15.790;2022-12-07T06:29:19;1.40;99.90
22426;DHT22;11380;50.822;15.790;2022-12-07T06:34:23;1.40;99.90
22426;DHT22;11380;50.822;15.790;2022-12-07T06:39:27;1.20;99.90
22426;DHT22;11380;50.822;15.790;2022-12-07T06:44:30;1.10;99.90
22426;DHT22;11380;50.822;15.790;2022-12-07T06:49:32;1.10;99.90
22426;DHT22;11380;50.822;15.790;2022-12-07T06:54:34;1.00;99.90
22426;DHT22;11380;50.822;15.790;2022-12-07T06:59:36;1.10;99.90
22426;DHT22;11380;50.822;15.790;2022-12-07T07:04:38;0.90;99.90
22426;DHT22;11380;50.822;15.790;2022-12-07T07:09:40;0.80;99.90
22426;DHT22;11380;50.822;15.790;2022-12-07T07:14:43;0.90;99.90
22426;DHT22;11380;50.822;15.790;2022-12-07T07:19:44;0.90;99.90
22426;DHT22;11380;50.822;15.790;2022-12-07T07:24:46;0.70;99.90
22426;DHT22;11380;50.822;15.790;2022-12-07T07:29:48;0.40;99.90
22426;DHT22;11380;50.822;15.790;2022-12-07T07:34:51;0.30;99.90
22426;DHT22;11380;50.822;15.790;2022-12-07T07:39:53;0.00;99.90
22426;DHT22;11380;50.822;15.790;2022-12-07T07:44:55;0.20;99.90
22426;DHT22;11380;50.822;15.790;2022-12-07T07:49:58;0.70;99.90
22426;DHT22;11380;50.822;15.790;2022-12-07T07:55:00;0.90;99.90
22426;DHT22;11380;50.822;15.790;2022-12-07T08:00:13;0.90;99.90
22426;DHT22;11380;50.822;15.790;2022-12-07T08:05:16;1.50;99.90
22426;DHT22;11380;50.822;15.790;2022-12-07T08:10:19;1.90;99.90
22426;DHT22;11380;50.822;15.790;2022-12-07T08:15:21;1.70;99.90
22426;DHT22;11380;50.822;15.790;2022-12-07T08:20:23;2.00;57.30
22426;DHT22;11380;50.822;15.790;2022-12-07T08:25:26;2.30;1.00
22426;DHT22;11380;50.822;15.790;2022-12-07T08:30:29;2.30;1.00
22426;DHT22;11380;50.822;15.790;2022-12-07T08:35:33;1.70;50.70
22426;DHT22;11380;50.822;15.790;2022-12-07T08:40:36;1.90;28.30
22426;DHT22;11380;50.822;15.790;2022-12-07T08:45:39;2.10;1.00
22426;DHT22;11380;50.822;15.790;2022-12-07T08:50:42;2.50;1.00
22426;DHT22;11380;50.822;15.790;2022-12-07T08:55:47;2.40;1.00
22426;DHT22;11380;50.822;15.790;2022-12-07T09:00:50;2.10;1.00
22426;DHT22;11380;50.822;15.790;2022-12-07T09:05:53;2.20;99.90
22426;DHT22;11380;50.822;15.790;2022-12-07T09:10:55;2.40;99.90
22426;DHT22;11380;50.822;15.790;2022-12-07T09:15:58;2.40;54.50
22426;DHT22;11380;50.822;15.790;2022-12-07T09:21:00;2.40;99.90
22426;DHT22;11380;50.822;15.790;2022-12-07T09:26:03;2.40;99.90
22426;DHT22;11380;50.822;15.790;2022-12-07T09:31:08;2.40;1.00
22426;DHT22;11380;50.822;15.790;2022-12-07T09:36:13;2.50;1.00
22426;DHT22;11380;50.822;15.790;2022-12-07T09:41:15;2.40;1.00
22426;DHT22;11380;50.822;15.790;2022-12-07T09:46:19;2.30;1.00
22426;DHT22;11380;50.822;15.790;2022-12-07T09:51:23;2.30;99.90
22426;DHT22;11380;50.822;15.790;2022-12-07T09:56:29;2.40;99.90
22426;DHT22;11380;50.822;15.790;2022-12-07T10:01:33;2.40;1.00
22426;DHT22;11380;50.822;15.790;2022-12-07T10:06:35;2.50;1.00
22426;DHT22;11380;50.822;15.790;2022-12-07T10:12:04;2.60;1.00
22426;DHT22;11380;50.822;15.790;2022-12-07T10:17:36;2.50;1.00
22426;DHT22;11380;50.822;15.790;2022-12-07T10:22:56;2.40;1.00
22426;DHT22;11380;50.822;15.790;2022-12-07T10:33:37;2.40;1.00
22426;DHT22;11380;50.822;15.790;2022-12-07T10:38:46;2.50;1.00
22426;DHT22;11380;50.822;15.790;2022-12-07T10:43:54;2.50;1.00
22426;DHT22;11380;50.822;15.790;2022-12-07T10:49:14;2.60;1.00
22426;DHT22;11380;50.822;15.790;2022-12-07T10:54:38;2.60;1.00
22426;DHT22;11380;50.822;15.790;2022-12-07T11:11:06;2.60;1.00
22426;DHT22;11380;50.822;15.790;2022-12-07T11:22:03;2.50;1.00
22426;DHT22;11380;50.822;15.790;2022-12-07T11:32:51;2.70;1.00
22426;DHT22;11380;50.822;15.790;2022-12-07T11:38:17;2.80;1.00
22426;DHT22;11380;50.822;15.790;2022-12-07T11:43:26;2.70;1.00
22426;DHT22;11380;50.822;15.790;2022-12-07T11:48:35;2.70;1.00
22426;DHT22;11380;50.822;15.790;2022-12-07T11:53:43;2.70;1.00
22426;DHT22;11380;50.822;15.790;2022-12-07T11:58:58;2.70;1.00
22426;DHT22;11380;50.822;15.790;2022-12-07T12:04:22;2.70;1.00
22426;DHT22;11380;50.822;15.790;2022-12-07T12:25:43;2.70;1.00
22426;DHT22;11380;50.822;15.790;2022-12-07T12:31:06;2.80;1.00
22426;DHT22;11380;50.822;15.790;2022-12-07T12:41:51;2.80;1.00
22426;DHT22;11380;50.822;15.790;2022-12-07T12:47:01;2.90;1.00
22426;DHT22;11380;50.822;15.790;2022-12-07T12:57:38;2.90;1.00
22426;DHT22;11380;50.822;15.790;2022-12-07T13:02:55;2.90;1.00
22426;DHT22;11380;50.822;15.790;2022-12-07T13:08:22;2.90;1.00
22426;DHT22;11380;50.822;15.790;2022-12-07T13:13:30;2.80;1.00
22426;DHT22;11380;50.822;15.790;2022-12-07T13:18:36;2.80;1.00
22426;DHT22;11380;50.822;15.790;2022-12-07T13:29:18;2.70;1.00
22426;DHT22;11380;50.822;15.790;2022-12-07T13:34:32;2.80;1.00
22426;DHT22;11380;50.822;15.790;2022-12-07T13:39:49;2.70;1.00
22426;DHT22;11380;50.822;15.790;2022-12-07T13:44:56;2.70;1.00
22426;DHT22;11380;50.822;15.790;2022-12-07T13:49:59;2.70;1.00
22426;DHT22;11380;50.822;15.790;2022-12-07T14:00:18;2.70;1.00
22426;DHT22;11380;50.822;15.790;2022-12-07T14:05:25;2.80;1.00
22426;DHT22;11380;50.822;15.790;2022-12-07T14:15:37;2.60;1.00
22426;DHT22;11380;50.822;15.790;2022-12-07T14:20:40;2.40;1.00
22426;DHT22;11380;50.822;15.790;2022-12-07T14:25:51;2.30;1.00
22426;DHT22;11380;50.822;15.790;2022-12-07T14:30:53;2.40;1.00
22426;DHT22;11380;50.822;15.790;2022-12-07T14:35:55;2.30;1.00
22426;DHT22;11380;50.822;15.790;2022-12-07T14:40:59;2.20;1.00
22426;DHT22;11380;50.822;15.790;2022-12-07T14:46:03;2.30;1.00
22426;DHT22;11380;50.822;15.790;2022-12-07T14:51:08;2.20;1.00
22426;DHT22;11380;50.822;15.790;2022-12-07T14:56:14;2.10;1.00
22426;DHT22;11380;50.822;15.790;2022-12-07T15:01:16;2.20;1.00
22426;DHT22;11380;50.822;15.790;2022-12-07T15:06:18;2.30;1.00
22426;DHT22;11380;50.822;15.790;2022-12-07T15:11:21;2.00;1.00
22426;DHT22;11380;50.822;15.790;2022-12-07T15:16:23;1.80;99.90
22426;DHT22;11380;50.822;15.790;2022-12-07T15:21:26;1.70;99.90
22426;DHT22;11380;50.822;15.790;2022-12-07T15:26:29;1.80;99.90
22426;DHT22;11380;50.822;15.790;2022-12-07T15:31:32;1.70;99.90
22426;DHT22;11380;50.822;15.790;2022-12-07T15:36:36;1.70;23.60
22426;DHT22;11380;50.822;15.790;2022-12-07T15:41:38;1.70;1.00
22426;DHT22;11380;50.822;15.790;2022-12-07T15:46:41;1.90;1.00
22426;DHT22;11380;50.822;15.790;2022-12-07T15:51:44;2.00;1.00
22426;DHT22;11380;50.822;15.790;2022-12-07T15:56:47;1.90;1.00
22426;DHT22;11380;50.822;15.790;2022-12-07T16:01:49;1.80;1.00
22426;DHT22;11380;50.822;15.790;2022-12-07T16:06:52;1.70;96.60
22426;DHT22;11380;50.822;15.790;2022-12-07T16:11:55;1.50;99.90
22426;DHT22;11380;50.822;15.790;2022-12-07T16:16:57;1.40;99.90
22426;DHT22;11380;50.822;15.790;2022-12-07T16:22:00;1.40;99.90
22426;DHT22;11380;50.822;15.790;2022-12-07T16:27:02;1.50;99.90
22426;DHT22;11380;50.822;15.790;2022-12-07T16:32:05;1.50;99.90
22426;DHT22;11380;50.822;15.790;2022-12-07T16:37:07;1.50;99.90
22426;DHT22;11380;50.822;15.790;2022-12-07T16:42:10;1.60;99.90
22426;DHT22;11380;50.822;15.790;2022-12-07T16:47:12;1.70;99.90
22426;DHT22;11380;50.822;15.790;2022-12-07T16:52:14;1.30;99.90
22426;DHT22;11380;50.822;15.790;2022-12-07T16:57:22;1.10;99.90
22426;DHT22;11380;50.822;15.790;2022-12-07T17:02:25;1.10;99.90
22426;DHT22;11380;50.822;15.790;2022-12-07T17:07:29;1.10;99.90
22426;DHT22;11380;50.822;15.790;2022-12-07T17:12:32;1.00;99.90
22426;DHT22;11380;50.822;15.790;2022-12-07T17:17:34;1.20;99.90
22426;DHT22;11380;50.822;15.790;2022-12-07T17:22:36;1.40;99.90
22426;DHT22;11380;50.822;15.790;2022-12-07T17:27:39;1.40;99.90
22426;DHT22;11380;50.822;15.790;2022-12-07T17:32:42;1.40;99.90
22426;DHT22;11380;50.822;15.790;2022-12-07T17:37:45;1.60;63.10
22426;DHT22;11380;50.822;15.790;2022-12-07T17:42:49;1.70;1.00
22426;DHT22;11380;50.822;15.790;2022-12-07T17:47:52;1.60;23.60
22426;DHT22;11380;50.822;15.790;2022-12-07T17:52:56;1.70;30.30
22426;DHT22;11380;50.822;15.790;2022-12-07T17:58:18;1.60;25.80
22426;DHT22;11380;50.822;15.790;2022-12-07T18:03:20;1.60;1.00
22426;DHT22;11380;50.822;15.790;2022-12-07T18:08:22;1.60;69.70
22426;DHT22;11380;50.822;15.790;2022-12-07T18:13:25;1.40;99.90
22426;DHT22;11380;50.822;15.790;2022-12-07T18:18:38;1.50;99.90
22426;DHT22;11380;50.822;15.790;2022-12-07T18:23:48;1.40;99.90
22426;DHT22;11380;50.822;15.790;2022-12-07T18:28:53;1.30;99.90
22426;DHT22;11380;50.822;15.790;2022-12-07T18:34:01;1.30;99.90
22426;DHT22;11380;50.822;15.790;2022-12-07T18:39:06;1.30;99.90
22426;DHT22;11380;50.822;15.790;2022-12-07T18:44:10;1.50;99.90
22426;DHT22;11380;50.822;15.790;2022-12-07T18:49:17;1.50;99.90
22426;DHT22;11380;50.822;15.790;2022-12-07T18:54:20;1.50;99.90
22426;DHT22;11380;50.822;15.790;2022-12-07T18:59:24;1.40;99.90
22426;DHT22;11380;50.822;15.790;2022-12-07T19:04:45;1.40;99.90
22426;DHT22;11380;50.822;15.790;2022-12-07T19:09:49;1.20;99.90
22426;DHT22;11380;50.822;15.790;2022-12-07T19:14:53;1.20;99.90
22426;DHT22;11380;50.822;15.790;2022-12-07T19:19:56;1.20;99.90
22426;DHT22;11380;50.822;15.790;2022-12-07T19:24:59;1.00;99.90
22426;DHT22;11380;50.822;15.790;2022-12-07T19:30:02;1.20;1.00
22426;DHT22;11380;50.822;15.790;2022-12-07T19:35:05;1.40;1.00
22426;DHT22;11380;50.822;15.790;2022-12-07T19:40:09;1.40;1.00
22426;DHT22;11380;50.822;15.790;2022-12-07T19:45:12;1.50;1.00
22426;DHT22;11380;50.822;15.790;2022-12-07T19:50:14;1.50;1.00
22426;DHT22;11380;50.822;15.790;2022-12-07T19:55:16;1.60;1.00
22426;DHT22;11380;50.822;15.790;2022-12-07T20:00:19;1.50;1.00
22426;DHT22;11380;50.822;15.790;2022-12-07T20:05:25;1.50;1.00
22426;DHT22;11380;50.822;15.790;2022-12-07T20:10:28;1.40;1.00
22426;DHT22;11380;50.822;15.790;2022-12-07T20:15:30;1.30;1.00
22426;DHT22;11380;50.822;15.790;2022-12-07T20:20:33;1.30;1.00
22426;DHT22;11380;50.822;15.790;2022-12-07T20:25:36;1.10;1.00
22426;DHT22;11380;50.822;15.790;2022-12-07T20:30:46;0.90;1.00
22426;DHT22;11380;50.822;15.790;2022-12-07T20:35:49;0.80;1.00
22426;DHT22;11380;50.822;15.790;2022-12-07T20:40:53;0.80;1.00
22426;DHT22;11380;50.822;15.790;2022-12-07T20:45:57;0.90;1.00
22426;DHT22;11380;50.822;15.790;2022-12-07T20:51:04;1.00;1.00
22426;DHT22;11380;50.822;15.790;2022-12-07T20:56:07;0.90;1.00
22426;DHT22;11380;50.822;15.790;2022-12-07T21:01:22;0.80;1.00
22426;DHT22;11380;50.822;15.790;2022-12-07T21:06:25;0.70;1.00
22426;DHT22;11380;50.822;15.790;2022-12-07T21:11:29;0.50;1.00
22426;DHT22;11380;50.822;15.790;2022-12-07T21:16:33;0.20;58.50
22426;DHT22;11380;50.822;15.790;2022-12-07T21:21:39;0.20;47.80
22426;DHT22;11380;50.822;15.790;2022-12-07T21:26:41;0.40;99.90
22426;DHT22;11380;50.822;15.790;2022-12-07T21:31:44;0.50;99.90
22426;DHT22;11380;50.822;15.790;2022-12-07T21:36:49;0.60;99.90
22426;DHT22;11380;50.822;15.790;2022-12-07T21:41:52;0.70;84.70
22426;DHT22;11380;50.822;15.790;2022-12-07T21:46:54;0.90;1.00
22426;DHT22;11380;50.822;15.790;2022-12-07T21:51:58;0.90;1.00
22426;DHT22;11380;50.822;15.790;2022-12-07T21:57:00;0.90;1.00
22426;DHT22;11380;50.822;15.790;2022-12-07T22:02:05;0.70;1.00
22426;DHT22;11380;50.822;15.790;2022-12-07T22:07:08;0.90;1.00
22426;DHT22;11380;50.822;15.790;2022-12-07T22:12:12;0.90;1.00
22426;DHT22;11380;50.822;15.790;2022-12-07T22:17:15;0.80;1.00
22426;DHT22;11380;50.822;15.790;2022-12-07T22:22:18;0.80;1.00
22426;DHT22;11380;50.822;15.790;2022-12-07T22:27:21;0.90;1.00
22426;DHT22;11380;50.822;15.790;2022-12-07T22:32:23;0.80;1.00
22426;DHT22;11380;50.822;15.790;2022-12-07T22:37:28;0.60;1.00
22426;DHT22;11380;50.822;15.790;2022-12-07T22:42:31;0.50;13.10
22426;DHT22;11380;50.822;15.790;2022-12-07T22:47:33;0.40;19.10
22426;DHT22;11380;50.822;15.790;2022-12-07T22:52:36;0.60;1.00
22426;DHT22;11380;50.822;15.790;2022-12-07T22:57:39;0.70;1.00
22426;DHT22;11380;50.822;15.790;2022-12-07T23:02:41;0.80;1.00
22426;DHT22;11380;50.822;15.790;2022-12-07T23:07:43;0.80;1.00
22426;DHT22;11380;50.822;15.790;2022-12-07T23:12:45;0.70;1.00
22426;DHT22;11380;50.822;15.790;2022-12-07T23:18:05;0.60;1.00
22426;DHT22;11380;50.822;15.790;2022-12-07T23:23:07;0.70;1.00
22426;DHT22;11380;50.822;15.790;2022-12-07T23:28:09;0.70;1.00
22426;DHT22;11380;50.822;15.790;2022-12-07T23:33:11;0.80;1.00
22426;DHT22;11380;50.822;15.790;2022-12-07T23:38:13;0.20;1.00
22426;DHT22;11380;50.822;15.790;2022-12-07T23:43:15;0.20;1.00
22426;DHT22;11380;50.822;15.790;2022-12-07T23:48:17;0.20;1.00
22426;DHT22;11380;50.822;15.790;2022-12-07T23:53:20;0.20;60.20
22426;DHT22;11380;50.822;15.790;2022-12-07T23:58:22;0.40;39.40
